createdAt,value
2018-09-18T00:00:41.094Z,2.17
2018-09-18T00:03:09.936Z,2.80
2018-09-18T00:05:38.501Z,2.10
2018-09-18T00:08:07.161Z,3.00
2018-09-18T00:10:35.743Z,2.00
2018-09-18T00:13:04.272Z,2.27
2018-09-18T00:15:32.831Z,2.37
2018-09-18T00:18:01.364Z,2.60
2018-09-18T00:20:29.993Z,2.33
2018-09-18T00:22:58.555Z,2.13
2018-09-18T00:25:27.156Z,1.67
2018-09-18T00:27:55.694Z,2.67
2018-09-18T00:30:24.255Z,2.43
2018-09-18T00:32:52.787Z,2.40
2018-09-18T00:35:21.364Z,2.80
2018-09-18T00:37:49.881Z,2.60
2018-09-18T00:40:18.512Z,2.30
2018-09-18T00:42:47.022Z,2.43
2018-09-18T00:45:15.576Z,3.23
2018-09-18T00:47:44.126Z,2.23
2018-09-18T00:50:12.720Z,2.67
2018-09-18T00:52:41.237Z,2.53
2018-09-18T00:55:09.803Z,2.53
2018-09-18T00:57:38.325Z,2.37
2018-09-18T01:00:06.933Z,3.40
2018-09-18T01:02:35.535Z,2.60
2018-09-18T01:05:04.231Z,2.67
2018-09-18T01:07:32.955Z,3.13
2018-09-18T01:10:03.008Z,2.27
2018-09-18T01:12:31.545Z,3.50
2018-09-18T01:15:00.110Z,3.40
2018-09-18T01:17:28.667Z,3.10
2018-09-18T01:19:57.231Z,3.77
2018-09-18T01:22:25.771Z,3.53
2018-09-18T01:24:54.267Z,2.83
2018-09-18T01:27:22.810Z,3.37
2018-09-18T01:29:51.340Z,2.43
2018-09-18T01:32:19.931Z,2.50
2018-09-18T01:34:48.460Z,2.80
2018-09-18T01:37:17.004Z,3.17
2018-09-18T01:39:45.521Z,2.63
2018-09-18T01:42:14.147Z,3.07
2018-09-18T01:44:42.648Z,3.43
2018-09-18T01:47:11.225Z,2.87
2018-09-18T01:49:39.732Z,2.43
2018-09-18T01:52:08.343Z,2.87
2018-09-18T01:54:36.867Z,2.63
2018-09-18T01:57:05.628Z,3.57
2018-09-18T01:59:34.175Z,2.83
2018-09-18T02:02:02.691Z,2.80
2018-09-18T02:04:31.245Z,2.47
2018-09-18T02:06:59.791Z,2.63
2018-09-18T02:09:28.324Z,2.60
2018-09-18T02:11:56.831Z,3.53
2018-09-18T02:14:25.402Z,3.40
2018-09-18T02:16:53.945Z,2.70
2018-09-18T02:19:22.523Z,3.10
2018-09-18T02:21:51.039Z,3.43
2018-09-18T02:24:19.602Z,3.30
2018-09-18T02:26:48.135Z,2.67
2018-09-18T02:29:16.735Z,2.93
2018-09-18T02:31:45.251Z,2.90
2018-09-18T02:34:13.807Z,3.33
2018-09-18T02:36:42.336Z,3.13
2018-09-18T02:39:12.266Z,2.50
2018-09-18T02:41:41.231Z,3.57
2018-09-18T02:44:09.936Z,2.60
2018-09-18T02:46:38.540Z,3.07
2018-09-18T02:49:07.242Z,2.97
2018-09-18T02:51:35.811Z,3.00
2018-09-18T02:54:04.432Z,3.77
2018-09-18T02:56:32.989Z,4.97
2018-09-18T02:59:01.523Z,3.23
2018-09-18T03:01:30.100Z,3.10
2018-09-18T03:03:58.631Z,2.97
2018-09-18T03:06:27.190Z,3.17
2018-09-18T03:08:55.747Z,3.67
2018-09-18T03:11:24.422Z,2.50
2018-09-18T03:13:52.901Z,2.77
2018-09-18T03:16:21.498Z,3.43
2018-09-18T03:18:50.107Z,3.37
2018-09-18T03:21:18.674Z,2.67
2018-09-18T03:23:47.210Z,2.77
2018-09-18T03:26:15.791Z,3.97
2018-09-18T03:28:44.310Z,2.80
2018-09-18T03:31:12.843Z,3.20
2018-09-18T03:33:41.330Z,3.00
2018-09-18T03:36:09.931Z,3.17
2018-09-18T03:38:38.467Z,3.37
2018-09-18T03:41:06.954Z,3.30
2018-09-18T03:43:35.499Z,3.13
2018-09-18T03:46:04.069Z,2.87
2018-09-18T03:48:32.691Z,2.70
2018-09-18T03:51:01.201Z,2.83
2018-09-18T03:53:29.770Z,2.87
2018-09-18T03:55:58.333Z,2.47
2018-09-18T03:58:26.854Z,3.07
2018-09-18T04:00:55.420Z,2.97
2018-09-18T04:03:23.955Z,2.80
2018-09-18T04:05:52.554Z,3.13
2018-09-18T04:08:21.079Z,3.20
2018-09-18T04:10:49.682Z,3.10
2018-09-18T04:13:18.347Z,2.77
2018-09-18T04:15:46.942Z,3.43
2018-09-18T04:18:18.497Z,4.00
2018-09-18T04:20:47.091Z,3.37
2018-09-18T04:23:15.650Z,2.67
2018-09-18T04:25:44.239Z,3.00
2018-09-18T04:28:12.787Z,3.20
2018-09-18T04:30:41.370Z,3.03
2018-09-18T04:33:10.227Z,2.73
2018-09-18T04:35:38.862Z,2.87
2018-09-18T04:38:07.463Z,2.83
2018-09-18T04:40:35.991Z,2.83
2018-09-18T04:43:04.522Z,3.27
2018-09-18T04:45:33.062Z,3.43
2018-09-18T04:48:01.598Z,2.93
2018-09-18T04:50:30.402Z,2.50
2018-09-18T04:52:58.906Z,2.97
2018-09-18T04:55:27.422Z,3.17
2018-09-18T04:57:55.902Z,2.60
2018-09-18T05:00:24.431Z,2.50
2018-09-18T05:02:52.932Z,2.70
2018-09-18T05:05:21.513Z,2.83
2018-09-18T05:07:50.072Z,2.67
2018-09-18T05:10:18.628Z,2.50
2018-09-18T05:12:47.142Z,3.17
2018-09-18T05:15:15.670Z,2.60
2018-09-18T05:17:44.182Z,2.67
2018-09-18T05:20:12.806Z,2.60
2018-09-18T05:22:41.310Z,2.90
2018-09-18T05:25:09.886Z,3.10
2018-09-18T05:27:38.383Z,3.03
2018-09-18T05:30:07.002Z,2.77
2018-09-18T05:32:35.490Z,2.87
2018-09-18T05:35:04.041Z,2.77
2018-09-18T05:37:32.548Z,3.60
2018-09-18T05:40:01.050Z,3.37
2018-09-18T05:42:29.638Z,3.57
2018-09-18T05:44:58.211Z,3.60
2018-09-18T05:47:26.748Z,3.97
2018-09-18T05:49:55.329Z,3.00
2018-09-18T05:52:23.870Z,3.37
2018-09-18T05:54:52.392Z,3.87
2018-09-18T05:57:20.955Z,3.50
2018-09-18T05:59:49.470Z,3.40
2018-09-18T06:02:18.227Z,3.73
2018-09-18T06:04:46.731Z,3.63
2018-09-18T06:07:15.567Z,4.50
2018-09-18T06:09:44.067Z,4.73
2018-09-18T06:12:12.623Z,3.90
2018-09-18T06:14:41.140Z,3.83
2018-09-18T06:17:11.715Z,3.97
2018-09-18T06:19:40.251Z,4.10
2018-09-18T06:22:08.907Z,4.13
2018-09-18T06:24:37.403Z,4.10
2018-09-18T06:27:06.687Z,4.00
2018-09-18T06:29:35.236Z,4.17
2018-09-18T06:32:03.896Z,3.67
2018-09-18T06:34:32.526Z,4.23
2018-09-18T06:37:01.148Z,3.83
2018-09-18T06:39:29.683Z,4.03
2018-09-18T06:41:58.220Z,4.03
2018-09-18T06:44:26.761Z,2.70
2018-09-18T06:46:55.252Z,2.67
2018-09-18T06:49:23.799Z,3.80
2018-09-18T06:51:52.294Z,3.10
2018-09-18T06:54:20.857Z,3.53
2018-09-18T06:56:49.374Z,3.67
2018-09-18T06:59:17.937Z,3.73
2018-09-18T07:01:46.494Z,3.57
2018-09-18T07:04:15.074Z,3.40
2018-09-18T07:06:43.622Z,2.60
2018-09-18T07:09:12.223Z,3.63
2018-09-18T07:11:40.787Z,3.73
2018-09-18T07:14:09.352Z,3.23
2018-09-18T07:16:37.902Z,3.37
2018-09-18T07:19:06.562Z,4.07
2018-09-18T07:21:35.234Z,3.70
2018-09-18T07:24:03.775Z,3.60
2018-09-18T07:26:32.335Z,3.93
2018-09-18T07:29:00.852Z,3.53
2018-09-18T07:31:29.409Z,3.97
2018-09-18T07:33:57.969Z,3.40
2018-09-18T07:36:26.422Z,3.93
2018-09-18T07:38:54.945Z,3.63
2018-09-18T07:41:23.670Z,3.47
2018-09-18T07:43:52.223Z,3.03
2018-09-18T07:46:20.829Z,3.03
2018-09-18T07:48:49.339Z,3.60
2018-09-18T07:51:17.964Z,3.20
2018-09-18T07:53:46.493Z,3.33
2018-09-18T07:56:15.079Z,2.90
2018-09-18T07:58:43.570Z,3.03
2018-09-18T08:01:12.124Z,3.07
2018-09-18T08:03:40.656Z,3.37
2018-09-18T08:06:09.210Z,2.90
2018-09-18T08:08:37.730Z,2.53
2018-09-18T08:11:06.404Z,2.83
2018-09-18T08:13:34.948Z,3.23
2018-09-18T08:16:03.507Z,3.13
2018-09-18T08:18:32.130Z,2.70
2018-09-18T08:21:00.740Z,2.83
2018-09-18T08:23:29.315Z,3.00
2018-09-18T08:25:57.840Z,2.47
2018-09-18T08:28:26.400Z,2.33
2018-09-18T08:30:54.903Z,2.67
2018-09-18T08:33:23.461Z,3.00
2018-09-18T08:35:51.988Z,2.67
2018-09-18T08:38:20.503Z,2.63
2018-09-18T08:40:49.098Z,2.47
2018-09-18T08:43:17.662Z,2.73
2018-09-18T08:45:46.322Z,2.50
2018-09-18T08:48:15.163Z,2.87
2018-09-18T08:50:43.712Z,3.13
2018-09-18T08:53:12.671Z,2.30
2018-09-18T08:55:41.337Z,2.73
2018-09-18T08:58:09.878Z,2.63
2018-09-18T09:00:38.492Z,2.67
2018-09-18T09:03:07.093Z,2.30
2018-09-18T09:05:35.622Z,2.70
2018-09-18T09:08:05.027Z,3.53
2018-09-18T09:10:33.490Z,2.50
2018-09-18T09:13:02.000Z,2.30
2018-09-18T09:15:30.628Z,2.47
2018-09-18T09:17:59.130Z,2.40
2018-09-18T09:20:27.634Z,2.33
2018-09-18T09:22:56.366Z,2.52
2018-09-18T09:25:24.667Z,2.65
2018-09-18T09:27:53.281Z,2.35
2018-09-18T09:30:21.802Z,1.80
2018-09-18T09:32:50.295Z,2.02
2018-09-18T09:35:18.910Z,2.00
2018-09-18T09:37:47.446Z,2.40
2018-09-18T09:40:16.006Z,2.30
2018-09-18T09:42:44.498Z,2.47
2018-09-18T09:45:13.071Z,2.08
2018-09-18T09:47:41.561Z,2.20
2018-09-18T09:50:10.131Z,2.05
2018-09-18T09:52:38.659Z,2.40
2018-09-18T09:55:07.207Z,2.25
2018-09-18T09:57:35.706Z,1.90
2018-09-18T10:00:05.499Z,2.05
2018-09-18T10:02:39.170Z,2.35
2018-09-18T10:05:07.766Z,2.70
2018-09-18T10:07:36.292Z,2.08
2018-09-18T10:10:05.012Z,2.17
2018-09-18T10:12:33.535Z,2.40
2018-09-18T10:15:02.031Z,2.15
2018-09-18T10:17:30.598Z,1.98
2018-09-18T10:19:59.173Z,2.17
2018-09-18T10:22:27.775Z,2.02
2018-09-18T10:24:56.357Z,1.85
2018-09-18T10:27:24.890Z,1.72
2018-09-18T10:29:53.426Z,2.45
2018-09-18T10:32:21.982Z,2.33
2018-09-18T10:34:50.534Z,2.37
2018-09-18T10:37:19.124Z,2.22
2018-09-18T10:39:47.651Z,2.10
2018-09-18T10:42:16.256Z,1.75
2018-09-18T10:44:44.717Z,1.80
2018-09-18T10:47:13.300Z,2.10
2018-09-18T10:49:41.812Z,1.98
2018-09-18T10:52:10.398Z,2.27
2018-09-18T10:54:38.947Z,2.52
2018-09-18T10:57:07.569Z,2.05
2018-09-18T10:59:36.115Z,1.80
2018-09-18T11:02:04.827Z,1.82
2018-09-18T11:04:33.352Z,2.17
2018-09-18T11:07:01.998Z,1.92
2018-09-18T11:09:30.553Z,1.72
2018-09-18T11:11:59.169Z,1.90
2018-09-18T11:14:29.171Z,1.75
2018-09-18T11:16:57.721Z,2.58
2018-09-18T11:19:26.409Z,1.75
2018-09-18T11:21:55.059Z,1.85
2018-09-18T11:24:23.676Z,1.98
2018-09-18T11:26:52.206Z,2.00
2018-09-18T11:29:20.800Z,1.75
2018-09-18T11:31:49.478Z,2.00
2018-09-18T11:34:18.161Z,1.75
2018-09-18T11:36:46.818Z,1.87
2018-09-18T11:39:15.605Z,1.75
2018-09-18T11:41:44.148Z,1.87
2018-09-18T11:44:12.733Z,1.87
2018-09-18T11:46:41.815Z,1.90
2018-09-18T11:49:10.764Z,2.00
2018-09-18T11:51:39.440Z,2.08
2018-09-18T11:54:08.226Z,1.90
2018-09-18T11:56:37.076Z,2.27
2018-09-18T11:59:05.977Z,1.77
2018-09-18T12:01:34.560Z,1.90
2018-09-18T12:04:03.156Z,1.67
2018-09-18T12:06:31.726Z,2.10
2018-09-18T12:09:00.328Z,2.10
2018-09-18T12:11:28.985Z,1.77
2018-09-18T12:13:57.431Z,2.05
2018-09-18T12:16:25.982Z,1.90
2018-09-18T12:18:54.473Z,1.55
2018-09-18T12:21:23.057Z,1.98
2018-09-18T12:23:51.586Z,1.62
2018-09-18T12:26:20.154Z,1.85
2018-09-18T12:28:48.833Z,1.65
2018-09-18T12:31:17.390Z,1.98
2018-09-18T12:33:46.030Z,2.10
2018-09-18T12:36:14.609Z,2.12
2018-09-18T12:38:43.186Z,1.90
2018-09-18T12:41:11.749Z,2.02
2018-09-18T12:43:40.316Z,2.17
2018-09-18T12:46:08.936Z,2.02
2018-09-18T12:48:37.560Z,1.95
2018-09-18T12:51:06.161Z,1.55
2018-09-18T12:53:34.692Z,1.98
2018-09-18T12:56:04.043Z,1.80
2018-09-18T12:58:33.452Z,2.10
2018-09-18T13:01:01.913Z,1.95
2018-09-18T13:03:30.490Z,1.90
2018-09-18T13:05:59.080Z,1.82
2018-09-18T13:08:29.441Z,1.90
2018-09-18T13:10:57.983Z,1.80
2018-09-18T13:13:26.584Z,2.08
2018-09-18T13:15:55.148Z,2.02
2018-09-18T13:18:23.850Z,2.10
2018-09-18T13:20:52.680Z,2.00
2018-09-18T13:23:21.346Z,1.98
2018-09-18T13:25:49.880Z,2.33
2018-09-18T13:28:18.488Z,1.72
2018-09-18T13:30:47.013Z,2.22
2018-09-18T13:33:15.650Z,2.00
2018-09-18T13:35:44.222Z,2.20
2018-09-18T13:38:12.770Z,1.95
2018-09-18T13:40:41.376Z,2.47
2018-09-18T13:43:09.955Z,1.90
2018-09-18T13:45:38.533Z,1.92
2018-09-18T13:48:07.578Z,1.90
2018-09-18T13:50:36.181Z,1.72
2018-09-18T13:53:04.683Z,2.05
2018-09-18T13:55:33.319Z,1.92
2018-09-18T13:58:01.851Z,2.50
2018-09-18T14:00:30.444Z,1.95
2018-09-18T14:02:59.214Z,2.10
2018-09-18T14:05:27.800Z,1.72
2018-09-18T14:07:56.356Z,1.85
2018-09-18T14:10:24.951Z,2.05
2018-09-18T14:12:53.475Z,1.67
2018-09-18T14:15:22.159Z,2.30
2018-09-18T14:17:50.618Z,2.58
2018-09-18T14:20:19.287Z,2.00
2018-09-18T14:22:47.827Z,2.33
2018-09-18T14:25:16.430Z,1.82
2018-09-18T14:27:44.951Z,2.20
2018-09-18T14:30:13.547Z,2.02
2018-09-18T14:32:42.105Z,1.90
2018-09-18T14:35:10.650Z,1.67
2018-09-18T14:37:39.224Z,1.60
2018-09-18T14:40:07.819Z,1.62
2018-09-18T14:42:36.374Z,1.60
2018-09-18T14:45:05.268Z,1.98
2018-09-18T14:47:33.800Z,1.80
2018-09-18T14:50:02.332Z,1.55
2018-09-18T14:52:30.859Z,2.10
2018-09-18T14:54:59.447Z,1.60
2018-09-18T14:57:28.029Z,1.95
2018-09-18T14:59:56.628Z,1.90
2018-09-18T15:02:25.608Z,2.02
2018-09-18T15:04:54.202Z,1.92
2018-09-18T15:07:22.773Z,1.92
2018-09-18T15:09:51.260Z,1.67
2018-09-18T15:12:19.865Z,1.98
2018-09-18T15:14:48.457Z,1.92
2018-09-18T15:17:17.006Z,2.10
2018-09-18T15:19:45.556Z,1.95
2018-09-18T15:22:14.098Z,2.10
2018-09-18T15:24:42.637Z,1.98
2018-09-18T15:27:11.280Z,1.75
2018-09-18T15:29:39.782Z,1.80
2018-09-18T15:32:08.454Z,1.92
2018-09-18T15:34:36.983Z,2.25
2018-09-18T15:37:05.673Z,2.25
2018-09-18T15:39:34.268Z,2.00
2018-09-18T15:42:03.478Z,2.15
2018-09-18T15:44:31.987Z,2.20
2018-09-18T15:47:00.596Z,1.90
2018-09-18T15:49:29.184Z,2.00
2018-09-18T15:51:58.049Z,1.85
2018-09-18T15:54:26.567Z,2.03
2018-09-18T15:56:55.104Z,1.70
2018-09-18T15:59:23.673Z,1.90
2018-09-18T16:01:52.249Z,2.17
2018-09-18T16:04:20.832Z,2.17
2018-09-18T16:06:49.384Z,2.43
2018-09-18T16:09:17.931Z,1.87
2018-09-18T16:11:46.459Z,2.47
2018-09-18T16:14:15.080Z,2.20
2018-09-18T16:16:43.559Z,2.00
2018-09-18T16:19:12.082Z,2.20
2018-09-18T16:21:40.658Z,1.97
2018-09-18T16:24:09.199Z,1.97
2018-09-18T16:26:37.728Z,1.80
2018-09-18T16:29:06.316Z,2.30
2018-09-18T16:31:34.827Z,2.17
2018-09-18T16:34:03.529Z,2.07
2018-09-18T16:36:32.023Z,1.87
2018-09-18T16:39:00.607Z,2.30
2018-09-18T16:41:29.094Z,1.97
2018-09-18T16:43:57.653Z,2.77
2018-09-18T16:46:26.159Z,2.77
2018-09-18T16:48:54.707Z,2.83
2018-09-18T16:51:23.248Z,5.70
2018-09-18T16:53:51.754Z,3.07
2018-09-18T16:56:20.284Z,2.17
2018-09-18T16:58:48.799Z,2.03
2018-09-18T17:01:17.349Z,2.37
2018-09-18T17:03:45.870Z,1.83
2018-09-18T17:06:14.406Z,1.80
2018-09-18T17:08:42.902Z,2.00
2018-09-18T17:11:11.427Z,2.00
2018-09-18T17:13:39.907Z,2.37
2018-09-18T17:16:08.487Z,2.37
2018-09-18T17:18:37.021Z,2.17
2018-09-18T17:21:05.683Z,1.70
2018-09-18T17:23:34.278Z,2.10
2018-09-18T17:26:03.014Z,2.37
2018-09-18T17:28:31.589Z,1.93
2018-09-18T17:31:00.097Z,2.27
2018-09-18T17:33:28.645Z,2.60
2018-09-18T17:35:57.254Z,2.10
2018-09-18T17:38:25.879Z,1.83
2018-09-18T17:40:54.446Z,2.60
2018-09-18T17:43:23.259Z,2.07
2018-09-18T17:45:51.906Z,1.97
2018-09-18T17:48:20.479Z,2.10
2018-09-18T17:50:49.029Z,2.27
2018-09-18T17:53:17.586Z,2.97
2018-09-18T17:55:46.117Z,2.47
2018-09-18T17:58:14.710Z,2.07
2018-09-18T18:00:43.291Z,2.53
2018-09-18T18:03:11.844Z,2.13
2018-09-18T18:05:40.500Z,2.37
2018-09-18T18:08:09.093Z,2.37
2018-09-18T18:10:37.601Z,2.00
2018-09-18T18:13:06.415Z,2.60
2018-09-18T18:15:34.998Z,2.33
2018-09-18T18:18:03.638Z,2.57
2018-09-18T18:20:32.486Z,2.50
2018-09-18T18:23:03.676Z,2.17
2018-09-18T18:25:32.272Z,2.80
2018-09-18T18:28:00.907Z,2.47
2018-09-18T18:30:29.444Z,2.47
2018-09-18T18:32:58.046Z,2.73
2018-09-18T18:35:26.628Z,2.20
2018-09-18T18:37:55.230Z,2.53
2018-09-18T18:40:23.774Z,2.33
2018-09-18T18:42:52.443Z,2.17
2018-09-18T18:45:20.993Z,2.40
2018-09-18T18:47:49.628Z,2.37
2018-09-18T18:50:18.183Z,2.20
2018-09-18T18:52:46.700Z,2.60
2018-09-18T18:55:15.260Z,2.57
2018-09-18T18:57:43.902Z,2.10
2018-09-18T19:00:12.475Z,2.37
2018-09-18T19:02:41.032Z,2.37
2018-09-18T19:05:09.584Z,2.60
2018-09-18T19:07:38.102Z,2.13
2018-09-18T19:10:06.682Z,2.90
2018-09-18T19:12:35.194Z,3.03
2018-09-18T19:15:03.788Z,2.70
2018-09-18T19:17:32.317Z,2.50
2018-09-18T19:20:03.660Z,2.43
2018-09-18T19:22:32.186Z,2.57
2018-09-18T19:25:00.846Z,2.27
2018-09-18T19:27:29.394Z,2.20
2018-09-18T19:29:57.981Z,2.90
2018-09-18T19:32:26.518Z,2.57
2018-09-18T19:34:55.239Z,1.70
2018-09-18T19:37:23.795Z,2.40
2018-09-18T19:39:52.352Z,2.10
2018-09-18T19:42:20.929Z,2.00
2018-09-18T19:44:49.437Z,2.23
2018-09-18T19:47:18.021Z,2.43
2018-09-18T19:49:46.583Z,2.37
2018-09-18T19:52:15.217Z,2.43
2018-09-18T19:54:43.678Z,2.83
2018-09-18T19:57:12.263Z,2.60
2018-09-18T19:59:40.806Z,2.23
2018-09-18T20:02:09.436Z,2.57
2018-09-18T20:04:37.974Z,2.30
2018-09-18T20:07:06.537Z,2.83
2018-09-18T20:09:35.072Z,2.20
2018-09-18T20:12:03.649Z,2.33
2018-09-18T20:14:32.182Z,2.80
2018-09-18T20:17:00.756Z,2.50
2018-09-18T20:19:29.293Z,2.10
2018-09-18T20:21:57.891Z,2.43
2018-09-18T20:24:26.408Z,2.70
2018-09-18T20:26:54.960Z,2.83
2018-09-18T20:29:23.494Z,3.20
2018-09-18T20:31:51.998Z,2.07
2018-09-18T20:34:20.582Z,2.87
2018-09-18T20:36:49.099Z,2.70
2018-09-18T20:39:17.692Z,2.20
2018-09-18T20:41:46.303Z,2.40
2018-09-18T20:44:14.838Z,2.20
2018-09-18T20:46:43.361Z,2.13
2018-09-18T20:49:11.883Z,2.37
2018-09-18T20:51:40.419Z,2.90
2018-09-18T20:54:09.038Z,2.37
2018-09-18T20:56:37.555Z,2.93
2018-09-18T20:59:06.246Z,3.20
2018-09-18T21:01:34.883Z,2.23
2018-09-18T21:04:03.508Z,2.80
2018-09-18T21:06:32.073Z,2.67
2018-09-18T21:09:00.655Z,3.10
2018-09-18T21:11:29.199Z,3.27
2018-09-18T21:13:57.795Z,2.83
2018-09-18T21:16:26.333Z,2.13
2018-09-18T21:18:54.890Z,2.70
2018-09-18T21:21:23.446Z,2.70
2018-09-18T21:23:52.012Z,2.60
2018-09-18T21:26:20.549Z,2.40
2018-09-18T21:28:49.537Z,2.97
2018-09-18T21:31:18.175Z,2.13
2018-09-18T21:33:46.684Z,2.37
2018-09-18T21:36:15.257Z,3.13
2018-09-18T21:38:43.788Z,3.10
2018-09-18T21:41:12.357Z,2.80
2018-09-18T21:43:40.903Z,2.43
2018-09-18T21:46:09.456Z,2.33
2018-09-18T21:48:37.969Z,2.90
2018-09-18T21:51:06.517Z,2.80
2018-09-18T21:53:35.028Z,2.40
2018-09-18T21:56:03.602Z,3.07
2018-09-18T21:58:32.118Z,3.03
2018-09-18T22:01:06.567Z,2.60
2018-09-18T22:03:35.403Z,3.30
2018-09-18T22:06:04.235Z,2.23
2018-09-18T22:08:32.748Z,2.60
2018-09-18T22:11:02.493Z,2.53
2018-09-18T22:13:31.022Z,2.27
2018-09-18T22:15:59.791Z,2.07
2018-09-18T22:18:28.306Z,2.40
2018-09-18T22:20:56.942Z,2.60
2018-09-18T22:23:25.447Z,2.70
2018-09-18T22:25:54.004Z,2.73
2018-09-18T22:28:22.568Z,2.30
2018-09-18T22:30:51.081Z,2.73
2018-09-18T22:33:19.648Z,2.77
2018-09-18T22:35:48.171Z,2.70
2018-09-18T22:38:16.728Z,2.73
2018-09-18T22:40:45.336Z,2.77
2018-09-18T22:43:13.910Z,2.90
2018-09-18T22:45:42.481Z,2.13
2018-09-18T22:48:10.999Z,2.60
2018-09-18T22:50:39.521Z,2.87
2018-09-18T22:53:08.083Z,2.13
2018-09-18T22:55:36.592Z,2.40
2018-09-18T22:58:05.203Z,2.67
2018-09-18T23:00:33.704Z,2.23
2018-09-18T23:03:03.469Z,2.47
2018-09-18T23:05:32.011Z,2.30
2018-09-18T23:08:00.574Z,2.60
2018-09-18T23:10:29.080Z,2.83
2018-09-18T23:12:57.649Z,2.50
2018-09-18T23:15:26.216Z,2.73
2018-09-18T23:17:54.763Z,3.17
2018-09-18T23:20:23.361Z,2.87
2018-09-18T23:22:51.900Z,2.77
2018-09-18T23:25:20.522Z,2.40
2018-09-18T23:27:49.082Z,2.30
2018-09-18T23:30:17.691Z,2.43
2018-09-18T23:32:46.217Z,2.43
2018-09-18T23:35:14.803Z,2.77
2018-09-18T23:37:43.367Z,2.83
2018-09-18T23:40:11.936Z,3.10
2018-09-18T23:42:40.420Z,2.50
2018-09-18T23:45:08.967Z,2.97
2018-09-18T23:47:37.584Z,3.90
2018-09-18T23:50:06.207Z,2.70
2018-09-18T23:52:34.818Z,2.70
2018-09-18T23:55:03.388Z,2.27
2018-09-18T23:57:31.903Z,2.70
